createdAt,value
2018-02-05T00:00:08.315Z,6.28
2018-02-05T00:00:39.961Z,7.30
2018-02-05T00:01:11.616Z,6.50
2018-02-05T00:01:43.253Z,7.15
2018-02-05T00:02:14.865Z,6.62
2018-02-05T00:02:46.501Z,7.28
2018-02-05T00:03:18.148Z,7.87
2018-02-05T00:03:49.773Z,6.80
2018-02-05T00:04:21.423Z,6.87
2018-02-05T00:04:53.077Z,6.43
2018-02-05T00:05:24.675Z,6.82
2018-02-05T00:05:56.291Z,7.40
2018-02-05T00:06:27.955Z,6.28
2018-02-05T00:06:59.579Z,7.80
2018-02-05T00:07:31.187Z,6.93
2018-02-05T00:08:02.827Z,5.68
2018-02-05T00:08:34.457Z,6.82
2018-02-05T00:09:06.071Z,6.62
2018-02-05T00:09:37.691Z,6.47
2018-02-05T00:10:09.385Z,6.68
2018-02-05T00:10:41.033Z,7.00
2018-02-05T00:11:12.675Z,6.35
2018-02-05T00:11:44.291Z,7.07
2018-02-05T00:12:15.933Z,7.05
2018-02-05T00:12:47.603Z,7.22
2018-02-05T00:13:19.271Z,7.07
2018-02-05T00:13:50.947Z,7.40
2018-02-05T00:14:22.584Z,5.53
2018-02-05T00:14:54.229Z,6.87
2018-02-05T00:15:25.885Z,6.15
2018-02-05T00:15:57.525Z,7.22
2018-02-05T00:16:29.167Z,7.28
2018-02-05T00:17:00.795Z,7.68
2018-02-05T00:17:32.423Z,7.10
2018-02-05T00:18:04.053Z,7.53
2018-02-05T00:18:35.685Z,6.78
2018-02-05T00:19:07.373Z,7.30
2018-02-05T00:19:38.985Z,7.53
2018-02-05T00:20:10.607Z,6.80
2018-02-05T00:20:42.261Z,5.75
2018-02-05T00:21:13.867Z,7.37
2018-02-05T00:21:45.519Z,7.80
2018-02-05T00:22:17.137Z,7.45
2018-02-05T00:22:48.797Z,7.40
2018-02-05T00:23:20.413Z,7.00
2018-02-05T00:23:52.051Z,7.37
2018-02-05T00:24:23.673Z,7.62
2018-02-05T00:24:55.301Z,8.68
2018-02-05T00:25:26.909Z,7.45
2018-02-05T00:25:58.541Z,6.30
2018-02-05T00:26:30.162Z,7.82
2018-02-05T00:27:01.767Z,7.15
2018-02-05T00:27:37.245Z,8.35
2018-02-05T00:28:08.873Z,7.85
2018-02-05T00:28:40.498Z,7.10
2018-02-05T00:29:12.143Z,7.40
2018-02-05T00:29:43.806Z,8.35
2018-02-05T00:30:15.421Z,7.90
2018-02-05T00:30:47.042Z,6.93
2018-02-05T00:31:18.671Z,7.82
2018-02-05T00:31:50.289Z,6.93
2018-02-05T00:32:21.913Z,7.75
2018-02-05T00:32:53.531Z,7.72
2018-02-05T00:33:25.161Z,7.93
2018-02-05T00:33:56.787Z,7.97
2018-02-05T00:34:28.432Z,6.15
2018-02-05T00:35:00.076Z,7.10
2018-02-05T00:35:31.708Z,7.95
2018-02-05T00:36:03.338Z,7.70
2018-02-05T00:36:34.979Z,7.30
2018-02-05T00:37:06.596Z,7.50
2018-02-05T00:37:38.220Z,7.00
2018-02-05T00:38:09.849Z,6.30
2018-02-05T00:38:41.474Z,6.72
2018-02-05T00:39:13.099Z,6.18
2018-02-05T00:39:44.725Z,6.18
2018-02-05T00:40:16.349Z,8.05
2018-02-05T00:40:47.961Z,7.78
2018-02-05T00:41:19.585Z,8.20
2018-02-05T00:41:51.229Z,7.25
2018-02-05T00:42:22.856Z,6.80
2018-02-05T00:42:54.493Z,7.50
2018-02-05T00:43:26.145Z,6.85
2018-02-05T00:43:57.781Z,7.62
2018-02-05T00:44:29.534Z,7.60
2018-02-05T00:45:01.159Z,6.12
2018-02-05T00:45:32.774Z,8.75
2018-02-05T00:46:04.397Z,8.60
2018-02-05T00:46:36.023Z,7.65
2018-02-05T00:47:07.661Z,8.23
2018-02-05T00:47:39.273Z,7.18
2018-02-05T00:48:10.903Z,7.78
2018-02-05T00:48:42.525Z,8.07
2018-02-05T00:49:14.141Z,6.93
2018-02-05T00:49:45.766Z,6.50
2018-02-05T00:50:17.388Z,7.60
2018-02-05T00:50:49.033Z,8.50
2018-02-05T00:51:20.664Z,8.68
2018-02-05T00:51:52.289Z,8.43
2018-02-05T00:52:23.925Z,7.82
2018-02-05T00:52:55.547Z,7.60
2018-02-05T00:53:27.171Z,7.90
2018-02-05T00:53:58.793Z,8.07
2018-02-05T00:54:30.424Z,6.93
2018-02-05T00:55:02.081Z,8.05
2018-02-05T00:55:33.740Z,8.30
2018-02-05T00:56:05.365Z,6.70
2018-02-05T00:56:36.989Z,6.43
2018-02-05T00:57:08.610Z,7.47
2018-02-05T00:57:40.242Z,7.28
2018-02-05T00:58:11.845Z,7.75
2018-02-05T00:58:43.468Z,9.35
2018-02-05T00:59:15.101Z,8.07
2018-02-05T00:59:46.741Z,6.97
2018-02-05T01:00:18.378Z,9.20
2018-02-05T01:00:50.019Z,8.32
2018-02-05T01:01:21.657Z,7.78
2018-02-05T01:01:53.275Z,8.30
2018-02-05T01:02:24.913Z,9.27
2018-02-05T01:02:56.587Z,5.68
2018-02-05T01:03:28.217Z,7.68
2018-02-05T01:13:49.912Z,8.55
2018-02-05T01:14:21.565Z,7.28
2018-02-05T01:14:53.199Z,9.02
2018-02-05T01:15:24.823Z,9.00
2018-02-05T01:15:56.493Z,10.23
2018-02-05T01:16:28.128Z,9.77
2018-02-05T01:16:59.763Z,9.40
2018-02-05T01:17:31.387Z,8.75
2018-02-05T01:18:02.997Z,9.15
2018-02-05T01:18:34.623Z,9.30
2018-02-05T01:19:06.265Z,8.20
2018-02-05T01:19:37.899Z,8.20
2018-02-05T01:20:09.557Z,8.00
2018-02-05T01:20:41.168Z,8.23
2018-02-05T01:21:12.795Z,8.52
2018-02-05T01:21:44.415Z,9.38
2018-02-05T01:22:16.016Z,9.45
2018-02-05T01:22:47.647Z,9.73
2018-02-05T01:23:19.255Z,9.10
2018-02-05T01:23:50.875Z,8.98
2018-02-05T01:24:22.497Z,7.62
2018-02-05T01:24:54.135Z,9.30
2018-02-05T01:25:25.772Z,9.70
2018-02-05T01:25:57.397Z,7.80
2018-02-05T01:26:29.007Z,9.93
2018-02-05T01:27:00.623Z,7.72
2018-02-05T01:27:32.241Z,8.90
2018-02-05T01:28:03.869Z,7.22
2018-02-05T01:28:35.512Z,8.52
2018-02-05T01:29:07.135Z,7.82
2018-02-05T01:29:38.791Z,7.80
2018-02-05T01:30:10.422Z,8.73
2018-02-05T01:30:42.045Z,9.18
2018-02-05T01:31:13.725Z,8.55
2018-02-05T01:31:45.350Z,7.70
2018-02-05T01:32:16.965Z,9.75
2018-02-05T01:32:48.601Z,7.30
2018-02-05T01:33:20.241Z,9.23
2018-02-05T01:33:51.867Z,9.63
2018-02-05T01:34:23.485Z,9.80
2018-02-05T01:34:55.108Z,9.07
2018-02-05T01:35:26.743Z,9.50
2018-02-05T01:35:58.375Z,9.50
2018-02-05T01:36:29.978Z,7.60
2018-02-05T01:37:01.630Z,8.65
2018-02-05T01:37:33.272Z,10.35
2018-02-05T01:38:04.931Z,10.02
2018-02-05T01:38:36.542Z,9.35
2018-02-05T01:39:08.185Z,9.65
2018-02-05T01:39:39.825Z,9.45
2018-02-05T01:40:11.481Z,9.85
2018-02-05T01:40:43.103Z,10.15
2018-02-05T01:41:14.735Z,8.77
2018-02-05T01:41:46.394Z,9.63
2018-02-05T01:42:18.001Z,9.27
2018-02-05T01:42:49.651Z,10.02
2018-02-05T01:43:21.287Z,9.73
2018-02-05T01:43:52.889Z,10.15
2018-02-05T01:44:24.532Z,10.18
2018-02-05T01:44:56.165Z,8.73
2018-02-05T01:45:27.813Z,9.18
2018-02-05T01:45:59.445Z,9.45
2018-02-05T01:46:31.089Z,9.40
2018-02-05T01:47:02.713Z,10.38
2018-02-05T01:47:34.341Z,8.25
2018-02-05T01:48:05.978Z,9.02
2018-02-05T01:48:37.595Z,10.18
2018-02-05T01:49:09.229Z,9.88
2018-02-05T01:49:40.847Z,10.45
2018-02-05T01:50:12.476Z,9.45
2018-02-05T01:50:44.141Z,10.13
2018-02-05T01:51:15.745Z,9.40
2018-02-05T01:51:47.358Z,9.38
2018-02-05T01:52:18.982Z,8.63
2018-02-05T01:52:50.602Z,10.90
2018-02-05T01:53:22.227Z,9.98
2018-02-05T01:53:53.849Z,9.57
2018-02-05T01:54:25.469Z,8.75
2018-02-05T01:54:57.103Z,7.07
2018-02-05T01:55:28.721Z,8.20
2018-02-05T01:56:00.339Z,10.07
2018-02-05T01:56:31.978Z,10.32
2018-02-05T01:57:03.625Z,10.35
2018-02-05T01:57:35.259Z,11.10
2018-02-05T01:58:06.957Z,9.43
2018-02-05T01:58:38.573Z,12.05
2018-02-05T01:59:10.183Z,9.30
2018-02-05T01:59:41.804Z,10.82
2018-02-05T02:00:13.433Z,9.07
2018-02-05T02:00:45.058Z,9.20
2018-02-05T02:01:16.717Z,9.55
2018-02-05T02:01:48.357Z,9.75
2018-02-05T02:02:19.969Z,9.05
2018-02-05T02:02:51.579Z,8.98
2018-02-05T02:03:23.215Z,8.73
2018-02-05T02:03:54.833Z,9.48
2018-02-05T02:04:26.445Z,10.15
2018-02-05T02:04:58.055Z,11.77
2018-02-05T02:05:29.673Z,7.45
2018-02-05T02:06:01.316Z,7.95
2018-02-05T02:06:32.969Z,9.05
2018-02-05T02:07:04.579Z,9.23
2018-02-05T02:07:36.213Z,9.18
2018-02-05T02:08:08.043Z,8.75
2018-02-05T02:08:39.651Z,7.00
2018-02-05T02:09:11.275Z,9.95
2018-02-05T02:09:42.925Z,9.50
2018-02-05T02:10:14.561Z,10.40
2018-02-05T02:10:46.152Z,9.65
2018-02-05T02:11:17.777Z,10.05
2018-02-05T02:11:49.411Z,10.60
2018-02-05T02:12:21.061Z,10.57
2018-02-05T02:12:52.702Z,10.02
2018-02-05T02:13:24.333Z,7.57
2018-02-05T02:13:55.957Z,9.18
2018-02-05T02:14:27.578Z,10.10
2018-02-05T02:14:59.181Z,9.65
2018-02-05T02:15:30.798Z,9.75
2018-02-05T02:16:02.415Z,9.65
2018-02-05T02:16:34.038Z,9.63
2018-02-05T02:17:05.675Z,8.15
2018-02-05T02:17:37.324Z,8.80
2018-02-05T02:18:08.964Z,9.45
2018-02-05T02:18:40.607Z,8.32
2018-02-05T02:19:12.237Z,9.98
2018-02-05T02:19:43.941Z,8.50
2018-02-05T02:20:15.603Z,9.25
2018-02-05T02:20:47.240Z,10.25
2018-02-05T02:21:18.894Z,10.00
2018-02-05T02:21:50.513Z,8.32
2018-02-05T02:22:22.181Z,8.77
2018-02-05T02:22:53.846Z,9.15
2018-02-05T02:23:25.519Z,9.63
2018-02-05T02:23:57.563Z,9.90
2018-02-05T02:24:29.216Z,8.82
2018-02-05T02:25:00.893Z,9.43
2018-02-05T02:25:32.517Z,7.90
2018-02-05T02:26:04.155Z,8.88
2018-02-05T02:26:35.791Z,9.23
2018-02-05T02:27:07.439Z,9.70
2018-02-05T02:27:39.085Z,7.85
2018-02-05T02:28:10.701Z,9.45
2018-02-05T02:28:42.318Z,9.20
2018-02-05T02:29:13.931Z,9.57
2018-02-05T02:29:45.559Z,8.98
2018-02-05T02:30:17.199Z,9.52
2018-02-05T02:30:48.809Z,9.52
2018-02-05T02:31:20.413Z,8.73
2018-02-05T02:31:52.019Z,9.52
2018-02-05T02:32:23.635Z,9.18
2018-02-05T02:32:55.293Z,10.35
2018-02-05T02:33:26.960Z,9.00
2018-02-05T02:33:58.572Z,9.57
2018-02-05T02:34:30.193Z,9.73
2018-02-05T02:35:01.827Z,9.63
2018-02-05T02:35:33.463Z,9.35
2018-02-05T02:36:05.083Z,9.65
2018-02-05T02:36:36.701Z,8.88
2018-02-05T02:37:08.331Z,9.18
2018-02-05T02:37:39.983Z,8.93
2018-02-05T02:38:11.627Z,8.13
2018-02-05T02:38:43.256Z,8.40
2018-02-05T02:39:14.879Z,8.70
2018-02-05T02:39:46.498Z,10.48
2018-02-05T02:40:18.117Z,9.52
2018-02-05T02:40:49.764Z,9.27
2018-02-05T02:41:21.381Z,9.80
2018-02-05T02:41:53.001Z,8.63
2018-02-05T02:42:24.615Z,9.55
2018-02-05T02:42:56.221Z,7.68
2018-02-05T02:43:27.877Z,11.00
2018-02-05T02:43:59.511Z,9.70
2018-02-05T02:44:31.137Z,9.77
2018-02-05T02:45:02.778Z,10.43
2018-02-05T02:45:34.397Z,9.25
2018-02-05T02:46:06.033Z,10.27
2018-02-05T02:46:37.670Z,10.60
2018-02-05T02:47:09.309Z,10.52
2018-02-05T02:47:40.993Z,10.48
2018-02-05T02:48:12.624Z,9.73
2018-02-05T02:48:44.259Z,9.85
2018-02-05T02:49:15.905Z,9.85
2018-02-05T02:49:47.531Z,9.10
2018-02-05T02:50:19.147Z,10.63
2018-02-05T02:50:50.779Z,10.15
2018-02-05T02:51:22.425Z,9.55
2018-02-05T02:51:54.019Z,8.82
2018-02-05T02:52:25.649Z,9.35
2018-02-05T02:52:57.291Z,9.90
2018-02-05T02:53:28.940Z,11.07
2018-02-05T02:54:00.598Z,9.88
2018-02-05T02:54:32.243Z,10.93
2018-02-05T02:55:03.861Z,10.15
2018-02-05T02:55:35.469Z,8.98
2018-02-05T02:56:07.107Z,9.05
2018-02-05T02:56:38.724Z,9.40
2018-02-05T02:57:10.327Z,10.60
2018-02-05T02:57:41.999Z,10.68
2018-02-05T02:58:13.617Z,10.10
2018-02-05T02:58:45.245Z,9.57
2018-02-05T02:59:16.895Z,9.60
2018-02-05T02:59:48.515Z,8.75
2018-02-05T03:00:20.125Z,8.52
2018-02-05T03:00:51.734Z,9.30
2018-02-05T03:01:23.372Z,8.75
2018-02-05T03:01:54.975Z,9.45
2018-02-05T03:02:26.602Z,10.45
2018-02-05T03:02:58.231Z,9.88
2018-02-05T03:03:29.849Z,10.52
2018-02-05T03:04:01.464Z,8.40
2018-02-05T03:04:33.111Z,10.43
2018-02-05T03:05:04.741Z,9.70
2018-02-05T03:05:36.415Z,11.48
2018-02-05T03:06:08.043Z,11.80
2018-02-05T03:06:39.648Z,11.65
2018-02-05T03:07:11.293Z,10.65
2018-02-05T03:07:42.893Z,11.07
2018-02-05T03:08:14.517Z,9.70
2018-02-05T03:08:46.142Z,9.38
2018-02-05T03:09:17.769Z,9.07
2018-02-05T03:09:49.389Z,9.65
2018-02-05T03:10:21.017Z,8.93
2018-02-05T03:10:52.651Z,9.68
2018-02-05T03:11:24.262Z,9.35
2018-02-05T03:11:55.868Z,8.98
2018-02-05T03:12:27.487Z,9.77
2018-02-05T03:12:59.122Z,9.88
2018-02-05T03:13:30.797Z,10.38
2018-02-05T03:14:02.399Z,9.60
2018-02-05T03:14:34.017Z,9.75
2018-02-05T03:15:05.673Z,10.68
2018-02-05T03:15:37.308Z,10.55
2018-02-05T03:16:08.945Z,10.10
2018-02-05T03:16:40.585Z,10.43
2018-02-05T03:17:12.209Z,11.85
2018-02-05T03:17:43.805Z,10.77
2018-02-05T03:18:15.434Z,10.18
2018-02-05T03:18:47.053Z,10.45
2018-02-05T03:19:18.679Z,10.57
2018-02-05T03:19:50.275Z,9.35
2018-02-05T03:20:21.898Z,10.63
2018-02-05T03:20:53.509Z,10.68
2018-02-05T03:21:25.133Z,11.48
2018-02-05T03:21:56.733Z,9.27
2018-02-05T03:22:28.352Z,9.82
2018-02-05T03:23:00.024Z,9.93
2018-02-05T03:23:31.657Z,9.65
2018-02-05T03:24:03.319Z,10.48
2018-02-05T03:24:34.933Z,10.45
2018-02-05T03:25:06.576Z,11.48
2018-02-05T03:25:38.233Z,10.43
2018-02-05T03:26:09.845Z,10.02
2018-02-05T03:26:41.478Z,10.93
2018-02-05T03:27:13.098Z,10.05
2018-02-05T03:27:44.722Z,10.40
2018-02-05T03:28:16.331Z,10.25
2018-02-05T03:28:47.950Z,10.40
2018-02-05T03:29:19.567Z,11.10
2018-02-05T03:29:51.188Z,10.85
2018-02-05T03:30:22.815Z,10.07
2018-02-05T03:30:54.457Z,8.95
2018-02-05T03:31:26.086Z,11.12
2018-02-05T03:31:57.701Z,8.88
2018-02-05T03:32:29.323Z,9.25
2018-02-05T03:33:00.953Z,9.85
2018-02-05T03:33:32.599Z,8.73
2018-02-05T03:34:04.223Z,10.35
2018-02-05T03:34:35.851Z,10.05
2018-02-05T03:35:07.481Z,9.68
2018-02-05T03:35:39.100Z,9.70
2018-02-05T03:36:10.744Z,10.25
2018-02-05T03:36:42.359Z,10.82
2018-02-05T03:37:14.009Z,9.88
2018-02-05T03:37:45.704Z,10.93
2018-02-05T03:38:17.331Z,10.20
2018-02-05T03:38:48.956Z,9.85
2018-02-05T03:39:20.578Z,8.82
2018-02-05T03:39:52.220Z,11.27
2018-02-05T03:40:23.885Z,9.57
2018-02-05T03:40:55.503Z,10.40
2018-02-05T03:41:27.143Z,10.27
2018-02-05T03:41:58.793Z,8.52
2018-02-05T03:42:30.398Z,9.80
2018-02-05T03:43:02.015Z,9.18
2018-02-05T03:43:33.619Z,8.77
2018-02-05T03:44:05.232Z,11.23
2018-02-05T03:44:36.869Z,8.30
2018-02-05T03:45:08.467Z,9.18
2018-02-05T03:45:40.085Z,10.27
2018-02-05T03:46:11.725Z,9.73
2018-02-05T03:46:43.366Z,10.35
2018-02-05T03:47:15.007Z,9.48
2018-02-05T03:47:46.652Z,9.75
2018-02-05T03:48:18.369Z,10.57
2018-02-05T03:48:49.993Z,9.52
2018-02-05T03:49:21.615Z,10.70
2018-02-05T03:49:53.218Z,11.30
2018-02-05T03:50:25.918Z,9.27
2018-02-05T03:50:57.538Z,8.25
2018-02-05T03:51:29.161Z,10.05
2018-02-05T03:52:00.793Z,9.68
2018-02-05T03:52:32.427Z,9.70
2018-02-05T03:53:04.043Z,10.40
2018-02-05T03:53:35.679Z,9.68
2018-02-05T03:54:07.308Z,9.75
2018-02-05T03:54:38.923Z,7.93
2018-02-05T03:55:10.552Z,9.63
2018-02-05T03:55:42.169Z,9.00
2018-02-05T03:56:13.773Z,9.88
2018-02-05T03:56:45.365Z,11.43
2018-02-05T03:57:16.997Z,9.18
2018-02-05T03:57:48.653Z,6.55
2018-02-05T03:58:20.262Z,8.58
2018-02-05T03:58:51.883Z,9.57
2018-02-05T03:59:23.503Z,9.65
2018-02-05T03:59:55.148Z,10.00
2018-02-05T04:00:26.785Z,10.13
2018-02-05T04:00:58.439Z,8.77
2018-02-05T04:01:30.037Z,9.32
2018-02-05T04:02:01.673Z,10.68
2018-02-05T04:02:33.333Z,8.75
2018-02-05T04:03:04.945Z,10.70
2018-02-05T04:03:36.584Z,9.52
2018-02-05T04:04:08.182Z,8.32
2018-02-05T04:04:39.797Z,7.50
2018-02-05T04:05:11.411Z,9.10
2018-02-05T04:05:43.019Z,9.30
2018-02-05T04:06:14.616Z,7.87
2018-02-05T04:06:52.509Z,10.23
2018-02-05T04:07:24.153Z,11.35
2018-02-05T04:07:55.781Z,8.98
2018-02-05T04:08:27.392Z,8.38
2018-02-05T04:08:59.023Z,10.15
2018-02-05T04:09:30.650Z,9.50
2018-02-05T04:10:02.317Z,9.75
2018-02-05T04:10:33.914Z,10.50
2018-02-05T04:11:05.530Z,9.80
2018-02-05T04:11:37.173Z,9.93
2018-02-05T04:12:08.783Z,10.05
2018-02-05T04:12:40.365Z,9.65
2018-02-05T04:13:12.013Z,9.70
2018-02-05T04:13:43.623Z,9.65
2018-02-05T04:14:15.227Z,8.07
2018-02-05T04:14:46.892Z,9.25
2018-02-05T04:15:18.541Z,10.05
2018-02-05T04:15:50.162Z,9.45
2018-02-05T04:16:21.818Z,9.93
2018-02-05T04:16:53.448Z,9.35
2018-02-05T04:17:25.089Z,9.90
2018-02-05T04:17:56.701Z,10.13
2018-02-05T04:18:28.334Z,11.93
2018-02-05T04:18:59.985Z,10.50
2018-02-05T04:19:31.633Z,10.18
2018-02-05T04:20:03.255Z,9.90
2018-02-05T04:20:34.878Z,8.45
2018-02-05T04:21:06.499Z,10.57
2018-02-05T04:21:38.139Z,9.60
2018-02-05T04:22:09.861Z,10.13
2018-02-05T04:22:41.487Z,11.68
2018-02-05T04:23:13.105Z,9.00
2018-02-05T04:23:44.764Z,10.55
2018-02-05T04:24:16.384Z,10.23
2018-02-05T04:24:48.005Z,9.57
2018-02-05T04:25:19.636Z,10.27
2018-02-05T04:25:51.250Z,10.52
2018-02-05T04:26:22.909Z,10.20
2018-02-05T04:26:54.564Z,10.48
2018-02-05T04:27:26.232Z,10.23
2018-02-05T04:27:57.866Z,10.50
2018-02-05T04:28:29.488Z,9.63
2018-02-05T04:29:01.117Z,10.05
2018-02-05T04:29:32.740Z,9.10
2018-02-05T04:30:04.372Z,9.52
2018-02-05T04:30:35.993Z,8.35
2018-02-05T04:31:07.619Z,11.00
2018-02-05T04:31:39.231Z,10.70
2018-02-05T04:32:10.861Z,9.32
2018-02-05T04:32:42.466Z,10.77
2018-02-05T04:33:14.103Z,9.40
2018-02-05T04:33:45.757Z,11.15
2018-02-05T04:34:17.441Z,9.85
2018-02-05T04:34:49.162Z,11.02
2018-02-05T04:35:20.829Z,10.70
2018-02-05T04:35:52.431Z,11.02
2018-02-05T04:36:24.057Z,11.40
2018-02-05T04:36:55.686Z,10.93
2018-02-05T04:37:27.306Z,10.50
2018-02-05T04:37:58.931Z,10.35
2018-02-05T04:38:30.543Z,10.77
2018-02-05T04:39:02.229Z,10.90
2018-02-05T04:39:33.894Z,10.05
2018-02-05T04:40:05.547Z,8.60
2018-02-05T04:40:37.151Z,10.90
2018-02-05T04:41:08.764Z,9.77
2018-02-05T04:41:40.388Z,10.02
2018-02-05T04:42:11.998Z,9.85
2018-02-05T04:42:43.620Z,10.55
2018-02-05T04:43:15.233Z,9.95
2018-02-05T04:43:46.860Z,10.65
2018-02-05T04:44:18.460Z,9.68
2018-02-05T04:44:50.095Z,10.07
2018-02-05T04:45:21.715Z,10.52
2018-02-05T04:45:53.358Z,9.73
2018-02-05T04:46:24.945Z,11.23
2018-02-05T04:46:56.551Z,10.20
2018-02-05T04:47:28.165Z,10.32
2018-02-05T04:47:59.781Z,9.55
2018-02-05T04:48:31.427Z,10.85
2018-02-05T04:49:03.057Z,11.30
2018-02-05T04:49:34.685Z,10.20
2018-02-05T04:50:06.326Z,10.82
2018-02-05T04:50:37.949Z,10.68
2018-02-05T04:51:09.557Z,10.77
2018-02-05T04:51:41.157Z,9.45
2018-02-05T04:52:12.802Z,10.57
2018-02-05T04:52:44.438Z,10.05
2018-02-05T04:53:16.055Z,9.43
2018-02-05T04:53:47.673Z,10.55
2018-02-05T04:54:19.281Z,9.95
2018-02-05T04:54:50.894Z,10.60
2018-02-05T04:55:22.540Z,9.93
2018-02-05T04:55:54.157Z,9.18
2018-02-05T04:56:25.792Z,11.38
2018-02-05T04:56:57.437Z,10.70
2018-02-05T04:57:29.064Z,10.52
2018-02-05T04:58:00.683Z,8.00
2018-02-05T04:58:32.303Z,11.80
2018-02-05T04:59:03.927Z,10.90
2018-02-05T04:59:35.575Z,11.38
2018-02-05T05:00:07.231Z,10.80
2018-02-05T05:00:38.889Z,10.32
2018-02-05T05:01:10.509Z,11.15
2018-02-05T05:01:42.106Z,10.02
2018-02-05T05:02:13.725Z,10.18
2018-02-05T05:02:45.346Z,6.25
2018-02-05T05:03:16.972Z,10.73
2018-02-05T05:03:48.581Z,10.40
2018-02-05T05:04:20.204Z,10.82
2018-02-05T05:04:51.805Z,10.27
2018-02-05T05:05:23.435Z,10.88
2018-02-05T05:05:55.085Z,10.80
2018-02-05T05:06:26.705Z,10.73
2018-02-05T05:06:58.344Z,10.75
2018-02-05T05:07:29.948Z,11.77
2018-02-05T05:08:01.599Z,10.55
2018-02-05T05:08:33.253Z,10.25
2018-02-05T05:09:04.885Z,10.52
2018-02-05T05:09:36.494Z,10.73
2018-02-05T05:10:08.115Z,11.65
2018-02-05T05:10:39.730Z,9.95
2018-02-05T05:11:11.360Z,11.30
2018-02-05T05:11:42.971Z,10.77
2018-02-05T05:12:14.587Z,11.80
2018-02-05T05:12:46.210Z,11.43
2018-02-05T05:13:17.855Z,12.13
2018-02-05T05:13:49.468Z,10.88
2018-02-05T05:14:21.072Z,11.55
2018-02-05T05:14:52.685Z,9.40
2018-02-05T05:15:24.315Z,11.55
2018-02-05T05:15:55.920Z,12.13
2018-02-05T05:16:27.552Z,10.43
2018-02-05T05:16:59.195Z,9.90
2018-02-05T05:17:30.820Z,12.23
2018-02-05T05:18:02.455Z,13.55
2018-02-05T05:18:34.069Z,12.63
2018-02-05T05:19:05.683Z,10.43
2018-02-05T05:19:37.300Z,11.05
2018-02-05T05:20:08.904Z,11.50
2018-02-05T05:20:40.525Z,11.65
2018-02-05T05:21:12.131Z,10.88
2018-02-05T05:21:43.756Z,11.00
2018-02-05T05:22:15.386Z,11.25
2018-02-05T05:22:47.003Z,10.75
2018-02-05T05:23:18.637Z,12.23
2018-02-05T05:23:50.250Z,12.20
2018-02-05T05:24:21.865Z,12.00
2018-02-05T05:24:53.498Z,11.25
2018-02-05T05:25:25.088Z,12.00
2018-02-05T05:25:56.720Z,11.80
2018-02-05T05:26:28.339Z,10.95
2018-02-05T05:26:59.975Z,10.57
2018-02-05T05:27:31.577Z,8.18
2018-02-05T05:28:03.229Z,9.55
2018-02-05T05:28:34.845Z,11.12
2018-02-05T05:29:06.465Z,11.43
2018-02-05T05:29:38.086Z,10.75
2018-02-05T05:30:09.685Z,10.20
2018-02-05T05:30:41.309Z,10.60
2018-02-05T05:31:12.927Z,10.43
2018-02-05T05:31:44.549Z,10.25
2018-02-05T05:32:16.198Z,11.35
2018-02-05T05:32:47.812Z,10.55
2018-02-05T05:33:19.467Z,11.00
2018-02-05T05:33:51.111Z,10.45
2018-02-05T05:34:22.723Z,10.35
2018-02-05T05:34:54.386Z,10.52
2018-02-05T05:35:26.007Z,11.50
2018-02-05T05:35:57.618Z,11.82
2018-02-05T05:36:29.252Z,11.20
2018-02-05T05:37:00.873Z,10.98
2018-02-05T05:37:32.513Z,10.45
2018-02-05T05:38:04.131Z,12.57
2018-02-05T05:38:35.747Z,11.40
2018-02-05T05:39:07.383Z,10.68
2018-02-05T05:39:38.990Z,10.60
2018-02-05T05:40:10.620Z,10.98
2018-02-05T05:40:42.237Z,10.77
2018-02-05T05:41:13.858Z,10.32
2018-02-05T05:41:45.496Z,10.35
2018-02-05T05:42:17.124Z,11.52
2018-02-05T05:42:48.753Z,10.98
2018-02-05T05:43:20.360Z,10.15
2018-02-05T05:43:51.968Z,12.32
2018-02-05T05:44:23.599Z,10.57
2018-02-05T05:44:55.228Z,11.02
2018-02-05T05:45:26.845Z,10.77
2018-02-05T05:45:58.469Z,11.10
2018-02-05T05:46:30.093Z,9.40
2018-02-05T05:47:01.708Z,10.45
2018-02-05T05:47:33.311Z,9.90
2018-02-05T05:49:05.158Z,9.30
2018-02-05T05:49:36.763Z,10.77
2018-02-05T05:50:08.403Z,10.50
2018-02-05T05:50:40.053Z,10.05
2018-02-05T05:51:11.674Z,11.23
2018-02-05T05:51:43.292Z,11.75
2018-02-05T05:52:14.913Z,10.02
2018-02-05T05:52:46.564Z,11.60
2018-02-05T05:53:18.206Z,10.48
2018-02-05T05:53:49.845Z,10.63
2018-02-05T05:54:21.466Z,10.70
2018-02-05T05:54:53.090Z,10.57
2018-02-05T05:55:24.715Z,10.27
2018-02-05T05:55:56.341Z,10.30
2018-02-05T05:56:27.960Z,10.73
2018-02-05T05:56:59.581Z,11.75
2018-02-05T05:57:31.198Z,11.48
2018-02-05T05:58:02.825Z,10.55
2018-02-05T05:58:34.446Z,11.12
2018-02-05T05:59:06.082Z,12.68
2018-02-05T05:59:37.707Z,12.23
2018-02-05T06:00:09.333Z,12.57
2018-02-05T06:00:40.948Z,12.68
2018-02-05T06:01:12.548Z,13.05
2018-02-05T06:01:44.184Z,12.68
2018-02-05T06:02:15.816Z,11.27
2018-02-05T06:02:47.458Z,11.57
2018-02-05T06:03:19.087Z,12.57
2018-02-05T06:03:50.712Z,12.23
2018-02-05T06:04:22.348Z,9.02
2018-02-05T06:04:53.988Z,11.85
2018-02-05T06:05:25.608Z,11.77
2018-02-05T06:05:57.225Z,12.07
2018-02-05T06:06:28.838Z,10.75
2018-02-05T06:07:00.470Z,11.43
2018-02-05T06:07:32.093Z,11.07
2018-02-05T06:08:03.738Z,10.80
2018-02-05T06:08:35.356Z,9.75
2018-02-05T06:09:07.001Z,7.85
2018-02-05T06:09:38.624Z,10.52
2018-02-05T06:10:10.236Z,11.88
2018-02-05T06:10:41.880Z,12.43
2018-02-05T06:11:13.486Z,11.15
2018-02-05T06:11:45.097Z,12.02
2018-02-05T06:12:16.716Z,11.75
2018-02-05T06:12:48.330Z,11.73
2018-02-05T06:13:19.960Z,10.60
2018-02-05T06:13:51.580Z,11.75
2018-02-05T06:14:23.212Z,11.55
2018-02-05T06:14:54.855Z,12.73
2018-02-05T06:15:26.456Z,10.88
2018-02-05T06:15:58.075Z,12.00
2018-02-05T06:16:29.705Z,10.23
2018-02-05T06:17:01.321Z,12.75
2018-02-05T06:17:32.942Z,12.73
2018-02-05T06:18:04.566Z,12.82
2018-02-05T06:18:36.202Z,12.65
2018-02-05T06:19:07.807Z,12.02
2018-02-05T06:19:39.430Z,11.95
2018-02-05T06:20:11.072Z,8.73
2018-02-05T06:20:42.676Z,15.18
2018-02-05T06:21:14.273Z,11.70
2018-02-05T06:21:45.889Z,13.27
2018-02-05T06:22:17.521Z,13.45
2018-02-05T06:22:49.127Z,12.68
2018-02-05T06:23:20.762Z,10.65
2018-02-05T06:23:52.371Z,11.12
2018-02-05T06:24:23.990Z,9.50
2018-02-05T06:24:55.596Z,11.73
2018-02-05T06:25:27.250Z,10.82
2018-02-05T06:25:58.919Z,12.68
2018-02-05T06:26:30.506Z,11.15
2018-02-05T06:27:02.117Z,12.95
2018-02-05T06:27:33.738Z,11.98
2018-02-05T06:28:05.380Z,11.68
2018-02-05T06:28:36.996Z,11.32
2018-02-05T06:29:08.616Z,12.57
2018-02-05T06:29:40.234Z,12.32
2018-02-05T06:30:11.851Z,11.65
2018-02-05T06:30:43.472Z,11.93
2018-02-05T06:31:15.092Z,11.98
2018-02-05T06:31:46.742Z,11.55
2018-02-05T06:32:18.348Z,12.30
2018-02-05T06:32:49.964Z,9.55
2018-02-05T06:33:21.573Z,11.80
2018-02-05T06:33:53.188Z,13.00
2018-02-05T06:34:24.796Z,11.30
2018-02-05T06:34:56.439Z,11.38
2018-02-05T06:35:28.068Z,13.90
2018-02-05T06:35:59.699Z,12.27
2018-02-05T06:36:31.310Z,12.60
2018-02-05T06:37:02.921Z,12.25
2018-02-05T06:37:34.752Z,13.45
2018-02-05T06:38:06.400Z,11.93
2018-02-05T06:38:38.048Z,12.55
2018-02-05T06:39:09.658Z,12.75
2018-02-05T06:39:41.267Z,13.30
2018-02-05T06:40:12.882Z,12.57
2018-02-05T06:40:44.510Z,12.00
2018-02-05T06:41:16.169Z,12.98
2018-02-05T06:41:47.798Z,13.82
2018-02-05T06:42:19.410Z,12.50
2018-02-05T06:42:51.020Z,13.10
2018-02-05T06:43:22.649Z,13.95
2018-02-05T06:43:54.292Z,12.45
2018-02-05T06:44:25.900Z,12.95
2018-02-05T06:44:57.542Z,13.57
2018-02-05T06:45:29.170Z,13.62
2018-02-05T06:46:00.778Z,13.52
2018-02-05T06:46:32.453Z,13.48
2018-02-05T06:47:04.076Z,13.18
2018-02-05T06:47:35.696Z,13.60
2018-02-05T06:48:07.336Z,13.98
2018-02-05T06:48:38.938Z,12.52
2018-02-05T06:49:10.552Z,12.98
2018-02-05T06:49:42.148Z,13.25
2018-02-05T06:50:32.540Z,8.88
2018-02-05T06:51:22.622Z,13.52
2018-02-05T06:52:12.682Z,13.40
2018-02-05T06:53:02.910Z,12.93
2018-02-05T06:53:52.945Z,13.30
2018-02-05T06:54:42.980Z,13.80
2018-02-05T06:55:32.901Z,12.88
2018-02-05T06:56:09.494Z,13.32
2018-02-05T06:56:41.138Z,13.35
2018-02-05T06:57:12.756Z,12.85
2018-02-05T06:57:44.374Z,13.43
2018-02-05T06:58:15.980Z,13.13
2018-02-05T06:58:47.611Z,12.40
2018-02-05T06:59:19.240Z,14.20
2018-02-05T06:59:50.876Z,15.25
2018-02-05T07:00:22.486Z,12.00
2018-02-05T07:00:54.110Z,13.45
2018-02-05T07:01:25.730Z,13.43
2018-02-05T07:01:57.338Z,11.38
2018-02-05T07:02:28.960Z,13.48
2018-02-05T07:03:00.558Z,14.25
2018-02-05T07:03:32.180Z,14.95
2018-02-05T07:04:03.792Z,14.95
2018-02-05T07:04:35.396Z,15.32
2018-02-05T07:05:07.020Z,14.93
2018-02-05T07:05:38.697Z,16.58
2018-02-05T07:06:10.309Z,15.50
2018-02-05T07:06:41.916Z,16.40
2018-02-05T07:07:13.509Z,12.65